Time;durP1;ratioP1;P1;durP2;ratioP2;P2;SDS_P1;SDS_P2;PMS_P1;PMS_P2;Temp;Humidity;BMP_temperature;BMP_pressure;BME280_temperature;BME280_humidity;BME280_pressure;Samples;Min_cycle;Max_cycle;Signal;HPM_P1;HPM_P2
2021/08/10 00:02:05;;;;;;;1999.90;999.90;;;;;;;22.79;64.03;95881.03;5111420;28;20693;-67
2021/08/10 00:04:32;;;;;;;1999.90;999.90;;;;;;;22.62;65.11;95877.00;5111608;28;20285;-67
2021/08/10 00:07:00;;;;;;;1999.90;999.90;;;;;;;22.59;64.80;95887.59;5111562;28;20199;-67
2021/08/10 00:09:27;;;;;;;1999.90;999.90;;;;;;;22.56;65.13;95885.66;5111676;28;20209;-67
2021/08/10 00:11:57;;;;;;;1999.90;999.90;;;;;;;22.49;65.86;95873.09;5111242;28;20286;-68
2021/08/10 00:14:24;;;;;;;1999.90;999.90;;;;;;;22.53;65.74;95879.19;5111117;28;20206;-67
2021/08/10 00:16:52;;;;;;;1999.90;999.90;;;;;;;22.56;65.44;95880.38;5111157;28;20233;-68
2021/08/10 00:19:20;;;;;;;1999.90;999.90;;;;;;;22.56;65.65;95875.06;5111088;28;20744;-69
2021/08/10 00:21:47;;;;;;;1999.90;999.90;;;;;;;22.63;65.61;95880.44;5110918;28;20705;-69
2021/08/10 00:24:15;;;;;;;1999.90;999.90;;;;;;;22.56;66.07;95885.66;5107960;28;20347;-68
2021/08/10 00:26:42;;;;;;;1999.90;999.90;;;;;;;22.40;68.36;95880.53;5111324;28;20199;-68
2021/08/10 00:29:09;;;;;;;1999.90;999.90;;;;;;;22.01;71.67;95880.03;5110903;28;20639;-67
2021/08/10 00:31:36;;;;;;;1999.90;999.90;;;;;;;21.96;72.06;95882.97;5110562;28;20282;-68
2021/08/10 00:34:04;;;;;;;1999.90;999.90;;;;;;;21.88;72.59;95874.13;5110477;28;20581;-69
2021/08/10 00:36:33;;;;;;;1999.90;999.90;;;;;;;21.86;72.74;95876.38;5110665;28;20203;-68
2021/08/10 00:39:00;;;;;;;1999.90;999.90;;;;;;;21.87;72.64;95874.47;5110873;28;20205;-69
2021/08/10 00:41:27;;;;;;;1999.90;999.90;;;;;;;21.78;73.15;95874.72;5096157;28;20791;-68
2021/08/10 00:43:55;;;;;;;1999.90;999.90;;;;;;;21.79;72.76;95872.84;5090342;28;20201;-68
2021/08/10 00:46:22;;;;;;;1999.90;999.90;;;;;;;21.85;72.06;95877.50;5090547;28;20225;-68
2021/08/10 00:48:49;;;;;;;1999.90;999.90;;;;;;;21.83;72.48;95876.31;5090079;28;20216;-68
2021/08/10 00:51:16;;;;;;;1999.90;999.90;;;;;;;21.62;74.73;95878.66;5090215;28;20231;-68
2021/08/10 00:53:45;;;;;;;1999.90;999.90;;;;;;;21.13;77.57;95874.00;5089980;28;20221;-67
2021/08/10 00:56:13;;;;;;;1999.90;999.90;;;;;;;20.78;79.84;95874.13;5089860;28;20291;-69
2021/08/10 00:58:40;;;;;;;1999.90;999.90;;;;;;;20.85;79.81;95881.44;5090000;28;20199;-66
2021/08/10 01:01:07;;;;;;;1999.90;999.90;;;;;;;20.77;80.79;95882.41;5089899;28;20295;-67
2021/08/10 01:03:35;;;;;;;1999.90;999.90;;;;;;;20.56;82.01;95880.13;5090019;28;20223;-67
2021/08/10 01:06:06;;;;;;;1999.90;999.90;;;;;;;20.75;80.54;95874.06;5089969;28;20223;-66
2021/08/10 01:08:43;;;;;;;1999.90;999.90;;;;;;;20.81;79.88;95885.88;5089834;28;20309;-68
2021/08/10 01:11:17;;;;;;;1999.90;999.90;;;;;;;20.88;79.69;95880.72;5089711;28;20279;-68
2021/08/10 01:13:50;;;;;;;1999.90;999.90;;;;;;;20.87;78.65;95889.78;5089978;28;20230;-68
2021/08/10 01:16:22;;;;;;;1999.90;999.90;;;;;;;20.68;78.78;95887.13;5089928;28;20392;-68
2021/08/10 01:18:56;;;;;;;1999.90;999.90;;;;;;;20.80;78.19;95885.13;5091929;28;20204;-68
2021/08/10 01:21:28;;;;;;;1999.90;999.90;;;;;;;20.88;78.00;95889.41;5089380;28;20637;-67
2021/08/10 01:24:02;;;;;;;1999.90;999.90;;;;;;;20.88;78.22;95886.00;5089647;28;20219;-68
2021/08/10 01:26:54;;;;;;;1999.90;999.90;;;;;;;20.95;78.30;95888.78;5089419;28;20184;-68
2021/08/10 01:29:29;;;;;;;1999.90;999.90;;;;;;;20.94;78.67;95876.69;5089590;28;20234;-68
2021/08/10 01:31:59;;;;;;;1999.90;999.90;;;;;;;20.84;79.10;95871.97;5089323;28;20194;-67
2021/08/10 01:34:33;;;;;;;1999.90;999.90;;;;;;;20.79;79.20;95874.91;5089723;28;20278;-66
2021/08/10 01:37:04;;;;;;;1999.90;999.90;;;;;;;20.67;80.13;95878.47;5089504;28;20287;-66
2021/08/10 01:39:33;;;;;;;1999.90;999.90;;;;;;;20.53;80.15;95872.88;5089061;28;20275;-66
2021/08/10 01:42:02;;;;;;;1999.90;999.90;;;;;;;20.43;80.89;95878.72;5107730;28;20264;-66
2021/08/10 01:44:30;;;;;;;1999.90;999.90;;;;;;;20.32;81.63;95870.59;5109308;28;20187;-67
2021/08/10 01:47:01;;;;;;;1999.90;999.90;;;;;;;20.24;82.16;95874.16;5109470;28;20230;-67
2021/08/10 01:49:29;;;;;;;1999.90;999.90;;;;;;;20.28;81.85;95872.34;5109529;28;20197;-69
2021/08/10 01:51:58;;;;;;;1999.90;999.90;;;;;;;20.26;81.71;95882.50;5109398;28;20301;-66
2021/08/10 01:54:26;;;;;;;1999.90;999.90;;;;;;;20.26;82.08;95868.53;5109413;28;20206;-66
2021/08/10 01:56:53;;;;;;;1999.90;999.90;;;;;;;20.30;82.02;95875.41;5094691;28;20638;-68
2021/08/10 01:59:23;;;;;;;1999.90;999.90;;;;;;;20.24;82.25;95876.03;5108737;28;20290;-67
2021/08/10 02:01:51;;;;;;;1999.90;999.90;;;;;;;20.18;82.26;95878.16;5105913;28;20628;-67
2021/08/10 02:04:21;;;;;;;1999.90;999.90;;;;;;;20.15;82.38;95877.00;5109196;28;20207;-68
2021/08/10 02:06:49;;;;;;;1999.90;999.90;;;;;;;20.07;83.16;95870.03;5108264;28;20213;-66
2021/08/10 02:09:18;;;;;;;1999.90;999.90;;;;;;;20.03;83.14;95865.75;5108721;28;20294;-66
2021/08/10 02:11:47;;;;;;;1999.90;999.90;;;;;;;20.06;82.71;95875.66;5108231;28;20766;-68
2021/08/10 02:14:16;;;;;;;1999.90;999.90;;;;;;;20.03;82.77;95879.72;5108826;28;20270;-66
2021/08/10 02:16:43;;;;;;;1999.90;999.90;;;;;;;20.10;82.35;95881.75;5108702;28;20195;-66
2021/08/10 02:19:10;;;;;;;1999.90;999.90;;;;;;;19.96;82.84;95889.38;5108796;28;20199;-66
2021/08/10 02:21:44;;;;;;;1999.90;999.90;;;;;;;19.93;83.18;95890.03;5107013;28;20202;-67
2021/08/10 02:24:23;;;;;;;1999.90;999.90;;;;;;;19.84;83.77;95895.50;5106547;28;20603;-66
2021/08/10 02:26:55;;;;;;;1999.90;999.90;;;;;;;19.88;83.41;95890.31;5088760;28;20269;-68
2021/08/10 02:29:27;;;;;;;1999.90;999.90;;;;;;;19.86;83.18;95897.81;5088803;28;20241;-67
2021/08/10 02:31:55;;;;;;;1999.90;999.90;;;;;;;19.86;83.17;95889.91;5088591;28;20180;-65
2021/08/10 02:34:23;;;;;;;1999.90;999.90;;;;;;;19.65;84.20;95887.53;5088665;28;21099;-68
2021/08/10 02:36:57;;;;;;;1999.90;999.90;;;;;;;19.67;83.97;95890.59;5088671;28;20191;-67
2021/08/10 02:39:25;;;;;;;1999.90;999.90;;;;;;;19.72;84.11;95885.06;5088315;28;20196;-65
2021/08/10 02:41:54;;;;;;;1999.90;999.90;;;;;;;19.78;83.56;95887.09;5107565;28;20210;-67
2021/08/10 02:44:23;;;;;;;1999.90;999.90;;;;;;;19.82;83.18;95886.41;5108724;28;20191;-67
2021/08/10 02:46:50;;;;;;;1999.90;999.90;;;;;;;19.84;82.47;95890.22;5108268;28;20287;-68
2021/08/10 02:49:17;;;;;;;1999.90;999.90;;;;;;;19.70;83.43;95887.28;5108672;28;20195;-67
2021/08/10 02:51:44;;;;;;;1999.90;999.90;;;;;;;19.65;83.64;95888.28;5108573;28;20206;-67
2021/08/10 02:54:13;;;;;;;1999.90;999.90;;;;;;;19.61;84.15;95892.72;5108783;28;20195;-67
2021/08/10 02:56:48;;;;;;;1999.90;999.90;;;;;;;19.68;83.41;95886.84;5111675;28;20604;-67
2021/08/10 02:59:21;;;;;;;1999.90;999.90;;;;;;;19.59;83.27;95892.28;5112393;28;20270;-66
2021/08/10 03:01:53;;;;;;;1999.90;999.90;;;;;;;19.58;83.02;95895.25;5112543;28;20266;-68
2021/08/10 03:04:24;;;;;;;1999.90;999.90;;;;;;;19.71;81.38;95891.44;5112278;28;20578;-68
2021/08/10 03:06:55;;;;;;;1999.90;999.90;;;;;;;19.81;79.28;95890.16;5112294;28;20191;-65
2021/08/10 03:09:25;;;;;;;1999.90;999.90;;;;;;;19.99;78.12;95901.88;5111463;28;20568;-67
2021/08/10 03:11:58;;;;;;;1999.90;999.90;;;;;;;20.02;77.41;95896.69;5111526;28;20179;-66
2021/08/10 03:14:27;;;;;;;1999.90;999.90;;;;;;;20.10;76.99;95903.66;5111999;28;20663;-66
2021/08/10 03:16:56;;;;;;;1999.90;999.90;;;;;;;20.07;77.03;95899.06;5098332;28;20325;-68
2021/08/10 03:19:24;;;;;;;1999.90;999.90;;;;;;;20.12;77.12;95905.94;5091766;28;20214;-66
2021/08/10 03:21:53;;;;;;;1999.90;999.90;;;;;;;20.13;77.01;95907.47;5091693;28;20733;-64
2021/08/10 03:24:21;;;;;;;1999.90;999.90;;;;;;;20.06;76.95;95909.97;5091493;28;20310;-66
2021/08/10 03:26:51;;;;;;;1999.90;999.90;;;;;;;19.89;78.14;95902.38;5091470;28;20200;-64
2021/08/10 03:29:21;;;;;;;1999.90;999.90;;;;;;;19.57;80.34;95906.94;5091656;28;20227;-64
2021/08/10 03:31:49;;;;;;;1999.90;999.90;;;;;;;19.37;81.94;95913.94;5091598;28;20571;-66
2021/08/10 03:34:18;;;;;;;1999.90;999.90;;;;;;;19.35;82.68;95910.88;5090585;28;20200;-64
2021/08/10 03:36:45;;;;;;;1999.90;999.90;;;;;;;19.16;83.88;95916.03;5091811;28;20200;-64
2021/08/10 03:39:13;;;;;;;1999.90;999.90;;;;;;;19.20;84.08;95911.63;5091466;28;20291;-63
2021/08/10 03:41:41;;;;;;;1999.90;999.90;;;;;;;19.18;84.59;95905.91;5108107;28;20245;-64
2021/08/10 03:44:10;;;;;;;1999.90;999.90;;;;;;;19.20;84.92;95906.34;5107102;28;20226;-64
2021/08/10 03:46:37;;;;;;;1999.90;999.90;;;;;;;19.18;85.41;95911.94;5097384;28;20353;-64
2021/08/10 03:49:05;;;;;;;1999.90;999.90;;;;;;;19.21;85.20;95918.41;5099377;28;20206;-65
2021/08/10 03:51:35;;;;;;;1999.90;999.90;;;;;;;19.24;84.80;95913.22;5104704;28;20210;-62
2021/08/10 03:54:03;;;;;;;1999.90;999.90;;;;;;;19.09;85.72;95918.47;5091288;28;20184;-63
2021/08/10 03:56:31;;;;;;;1999.90;999.90;;;;;;;19.10;85.34;95917.38;5089696;28;20294;-65
2021/08/10 03:58:59;;;;;;;1999.90;999.90;;;;;;;18.96;86.37;95919.63;5091189;28;20200;-62
2021/08/10 04:01:31;;;;;;;1999.90;999.90;;;;;;;19.03;86.63;95915.31;5090997;28;20196;-67
2021/08/10 04:04:01;;;;;;;1999.90;999.90;;;;;;;18.93;87.12;95921.06;5088335;28;20242;-65
2021/08/10 04:06:30;;;;;;;1999.90;999.90;;;;;;;18.91;87.64;95924.06;5088458;28;20857;-65
2021/08/10 04:08:57;;;;;;;1999.90;999.90;;;;;;;18.81;88.40;95921.13;5105859;28;20799;-64
2021/08/10 04:11:25;;;;;;;1999.90;999.90;;;;;;;18.86;88.37;95926.91;5108889;28;20327;-64
2021/08/10 04:13:52;;;;;;;1999.90;999.90;;;;;;;18.86;89.09;95921.66;5108951;28;20206;-64
2021/08/10 04:16:21;;;;;;;1999.90;999.90;;;;;;;18.91;89.67;95918.78;5109120;28;20305;-64
2021/08/10 04:18:51;;;;;;;1999.90;999.90;;;;;;;19.17;88.62;95918.34;5110280;28;20293;-64
2021/08/10 04:21:21;;;;;;;1999.90;999.90;;;;;;;19.30;88.15;95921.66;5110955;28;20198;-64
2021/08/10 04:23:48;;;;;;;1999.90;999.90;;;;;;;19.45;87.79;95910.41;5107833;28;20206;-64
2021/08/10 04:26:15;;;;;;;1999.90;999.90;;;;;;;19.65;87.19;95919.94;5111321;28;20218;-64
2021/08/10 04:28:42;;;;;;;1999.90;999.90;;;;;;;19.94;85.49;95923.22;5111326;28;20203;-63
2021/08/10 04:31:10;;;;;;;1999.90;999.90;;;;;;;20.34;83.26;95923.78;5110763;28;20234;-63
2021/08/10 04:33:37;;;;;;;1999.90;999.90;;;;;;;20.75;81.29;95926.91;5111009;28;20256;-64
2021/08/10 04:36:06;;;;;;;1999.90;999.90;;;;;;;21.10;79.77;95935.50;5110955;28;20206;-62
2021/08/10 04:38:33;;;;;;;1999.90;999.90;;;;;;;21.14;80.25;95944.28;5110648;28;20238;-64
2021/08/10 04:41:00;;;;;;;1999.90;999.90;;;;;;;21.43;79.81;95940.28;5100037;28;20258;-64
2021/08/10 04:43:27;;;;;;;1999.90;999.90;;;;;;;21.60;79.37;95944.34;5090281;28;20231;-64
2021/08/10 04:45:55;;;;;;;1999.90;999.90;;;;;;;21.54;79.64;95951.06;5090437;28;20203;-65
2021/08/10 04:48:22;;;;;;;1999.90;999.90;;;;;;;21.85;78.38;95950.81;5090082;28;20207;-64
2021/08/10 04:50:49;;;;;;;1999.90;999.90;;;;;;;22.03;77.34;95946.59;5090106;28;20200;-65
2021/08/10 04:53:18;;;;;;;1999.90;999.90;;;;;;;22.23;76.92;95942.72;5090048;28;20199;-65
2021/08/10 04:55:45;;;;;;;1999.90;999.90;;;;;;;22.05;77.34;95947.00;5090310;28;20191;-64
2021/08/10 04:58:12;;;;;;;1999.90;999.90;;;;;;;22.22;75.82;95945.72;5090007;28;20242;-65
2021/08/10 05:00:40;;;;;;;1999.90;999.90;;;;;;;22.42;73.90;95951.69;5089970;28;20196;-64
2021/08/10 05:03:07;;;;;;;1999.90;999.90;;;;;;;22.60;74.57;95952.69;5090017;28;20314;-64
2021/08/10 05:05:34;;;;;;;1999.90;999.90;;;;;;;22.66;74.24;95954.69;5090424;28;20227;-64
2021/08/10 05:08:01;;;;;;;1999.90;999.90;;;;;;;22.69;75.18;95950.53;5089987;28;20199;-64
2021/08/10 05:10:30;;;;;;;1999.90;999.90;;;;;;;22.73;74.72;95956.69;5089833;28;20249;-65
2021/08/10 05:12:57;;;;;;;1999.90;999.90;;;;;;;22.84;75.62;95962.13;5089682;28;20199;-65
2021/08/10 05:15:24;;;;;;;1999.90;999.90;;;;;;;22.84;75.24;95957.56;5089695;28;20196;-66
2021/08/10 05:17:52;;;;;;;1999.90;999.90;;;;;;;23.05;73.50;95957.84;5089259;28;20192;-66
2021/08/10 05:20:19;;;;;;;1999.90;999.90;;;;;;;23.25;70.63;95960.31;5089655;28;20202;-65
2021/08/10 05:22:46;;;;;;;1999.90;999.90;;;;;;;23.30;68.85;95960.00;5089497;28;20249;-65
2021/08/10 05:25:13;;;;;;;1999.90;999.90;;;;;;;23.30;69.33;95957.34;5089829;28;20223;-66
2021/08/10 05:27:42;;;;;;;1999.90;999.90;;;;;;;23.47;69.14;95954.13;5089679;28;20641;-66
2021/08/10 05:30:11;;;;;;;1999.90;999.90;;;;;;;23.41;70.83;95950.25;5089354;28;20206;-65
2021/08/10 05:32:38;;;;;;;1999.90;999.90;;;;;;;23.72;67.06;95957.75;5089782;28;20282;-66
2021/08/10 05:35:06;;;;;;;1999.90;999.90;;;;;;;23.88;65.57;95958.28;5089460;28;20287;-65
2021/08/10 05:37:33;;;;;;;1999.90;999.90;;;;;;;23.84;66.84;95954.84;5089746;28;20249;-65
2021/08/10 05:40:01;;;;;;;1999.90;999.90;;;;;;;23.93;70.29;95949.22;5091004;28;20239;-65
2021/08/10 05:42:28;;;;;;;1999.90;999.90;;;;;;;24.03;69.63;95951.19;5109696;28;20263;-66
2021/08/10 05:44:57;;;;;;;1999.90;999.90;;;;;;;24.29;66.76;95951.03;5109585;28;20249;-65
2021/08/10 05:47:24;;;;;;;1999.90;999.90;;;;;;;24.43;64.87;95948.47;5109362;28;20195;-65
2021/08/10 05:49:51;;;;;;;1999.90;999.90;;;;;;;24.48;63.88;95946.59;5109512;28;20202;-64
2021/08/10 05:52:19;;;;;;;1999.90;999.90;;;;;;;24.18;64.85;95946.78;5109429;28;20282;-64
2021/08/10 05:54:46;;;;;;;1999.90;999.90;;;;;;;24.44;64.08;95951.88;5109377;28;20193;-65
2021/08/10 05:57:13;;;;;;;1999.90;999.90;;;;;;;24.54;62.67;95953.84;5109730;28;20324;-64
2021/08/10 05:59:40;;;;;;;1999.90;999.90;;;;;;;24.70;61.41;95951.66;5109411;28;20202;-64
2021/08/10 06:02:09;;;;;;;1999.90;999.90;;;;;;;24.96;59.34;95957.84;5109313;28;20288;-64
2021/08/10 06:04:36;;;;;;;1999.90;999.90;;;;;;;25.12;56.26;95955.63;5109221;28;20701;-65
2021/08/10 06:07:06;;;;;;;1999.90;999.90;;;;;;;25.32;57.67;95956.06;5109534;28;20198;-65
2021/08/10 06:09:33;;;;;;;1999.90;999.90;;;;;;;25.43;57.48;95959.50;5109234;28;20191;-65
2021/08/10 06:12:01;;;;;;;1999.90;999.90;;;;;;;25.79;56.52;95957.69;5109272;28;20376;-64
2021/08/10 06:14:28;;;;;;;1999.90;999.90;;;;;;;26.09;54.74;95958.84;5109390;28;20268;-65
2021/08/10 06:16:55;;;;;;;1999.90;999.90;;;;;;;26.33;54.73;95959.22;5109315;28;20285;-65
2021/08/10 06:19:24;;;;;;;1999.90;999.90;;;;;;;26.41;53.39;95964.16;5109349;28;20230;-65
2021/08/10 06:21:52;;;;;;;1999.90;999.90;;;;;;;26.63;52.69;95956.13;5109438;28;20290;-65
2021/08/10 06:24:19;;;;;;;1999.90;999.90;;;;;;;26.82;52.36;95961.75;5109067;28;20243;-65
2021/08/10 06:26:46;;;;;;;1999.90;999.90;;;;;;;26.91;51.44;95959.47;5107491;28;20815;-66
2021/08/10 06:29:13;;;;;;;1999.90;999.90;;;;;;;27.04;50.60;95957.16;5088812;28;20200;-65
2021/08/10 06:31:40;;;;;;;1999.90;999.90;;;;;;;27.08;55.04;95960.56;5091875;28;20841;-65
2021/08/10 06:34:08;;;;;;;1999.90;999.90;;;;;;;27.06;55.75;95962.06;5093083;28;20195;-65
2021/08/10 06:36:39;;;;;;;1999.90;999.90;;;;;;;26.94;55.04;95953.38;5092723;28;20207;-65
2021/08/10 06:39:06;;;;;;;1999.90;999.90;;;;;;;27.04;54.09;95957.16;5093092;28;20603;-65
2021/08/10 06:41:33;;;;;;;1999.90;999.90;;;;;;;27.01;54.45;95960.56;5092512;28;20723;-66
2021/08/10 06:44:00;;;;;;;1999.90;999.90;;;;;;;27.05;54.39;95955.97;5092863;28;20227;-65
2021/08/10 06:46:29;;;;;;;1999.90;999.90;;;;;;;27.20;53.27;95951.34;5092559;28;20202;-65
2021/08/10 06:48:57;;;;;;;1999.90;999.90;;;;;;;27.30;53.31;95951.28;5092576;28;20660;-65
2021/08/10 06:51:24;;;;;;;1999.90;999.90;;;;;;;27.37;52.51;95948.56;5092465;28;20290;-65
2021/08/10 06:53:53;;;;;;;1999.90;999.90;;;;;;;27.24;53.00;95950.19;5092389;28;20590;-65
2021/08/10 06:56:20;;;;;;;1999.90;999.90;;;;;;;27.35;52.73;95952.78;5092499;28;20256;-65
2021/08/10 06:58:47;;;;;;;1999.90;999.90;;;;;;;27.13;51.74;95949.47;5092258;28;20200;-65
2021/08/10 07:01:14;;;;;;;1999.90;999.90;;;;;;;27.27;51.38;95959.31;5092324;28;20667;-64
2021/08/10 07:03:42;;;;;;;1999.90;999.90;;;;;;;27.44;51.16;95953.13;5092173;28;20610;-65
2021/08/10 07:06:11;;;;;;;1999.90;999.90;;;;;;;27.52;50.05;95945.84;5092510;28;20199;-65
2021/08/10 07:08:38;;;;;;;1999.90;999.90;;;;;;;27.64;51.25;95951.50;5092230;28;20207;-66
2021/08/10 07:11:07;;;;;;;1999.90;999.90;;;;;;;27.91;50.21;95954.34;5092141;28;20196;-65
2021/08/10 07:13:35;;;;;;;1999.90;999.90;;;;;;;27.86;50.95;95951.31;5092449;28;20200;-66
2021/08/10 07:16:02;;;;;;;1999.90;999.90;;;;;;;27.90;49.90;95950.16;5092011;28;20200;-65
2021/08/10 07:18:29;;;;;;;1999.90;999.90;;;;;;;27.89;50.41;95947.88;5091861;28;20235;-66
2021/08/10 07:20:57;;;;;;;1999.90;999.90;;;;;;;28.20;49.36;95946.84;5092262;28;20195;-65
2021/08/10 07:23:24;;;;;;;1999.90;999.90;;;;;;;28.29;49.06;95947.19;5092119;28;20274;-65
2021/08/10 07:25:52;;;;;;;1999.90;999.90;;;;;;;28.30;48.03;95934.53;5092109;28;20208;-66
2021/08/10 07:28:20;;;;;;;1999.90;999.90;;;;;;;28.31;49.18;95936.06;5092068;28;20214;-66
2021/08/10 07:30:47;;;;;;;1999.90;999.90;;;;;;;28.47;49.17;95936.28;5091794;28;20211;-65
2021/08/10 07:33:15;;;;;;;1999.90;999.90;;;;;;;28.68;49.22;95936.06;5092088;28;20664;-65
2021/08/10 07:35:42;;;;;;;1999.90;999.90;;;;;;;28.63;49.76;95931.94;5091670;28;20234;-65
2021/08/10 07:38:09;;;;;;;1999.90;999.90;;;;;;;29.06;46.57;95931.44;5091972;28;20203;-65
2021/08/10 07:40:36;;;;;;;1999.90;999.90;;;;;;;29.27;43.63;95927.72;5098500;28;20219;-66
2021/08/10 07:43:03;;;;;;;1999.90;999.90;;;;;;;29.45;43.65;95936.28;5111737;28;20195;-66
2021/08/10 07:45:32;;;;;;;1999.90;999.90;;;;;;;29.63;43.72;95936.78;5111678;28;20314;-66
2021/08/10 07:48:03;;;;;;;1999.90;999.90;;;;;;;29.76;44.43;95931.63;5111762;28;20202;-66
2021/08/10 07:50:30;;;;;;;1999.90;999.90;;;;;;;29.89;43.08;95935.25;5111723;28;20183;-66
2021/08/10 07:52:57;;;;;;;1999.90;999.90;;;;;;;29.86;44.50;95928.75;5111677;28;20282;-66
2021/08/10 07:55:25;;;;;;;1999.90;999.90;;;;;;;29.80;43.73;95933.06;5112083;28;20571;-66
2021/08/10 07:57:52;;;;;;;1999.90;999.90;;;;;;;29.87;43.34;95932.22;5111627;28;20912;-66
2021/08/10 08:00:20;;;;;;;1999.90;999.90;;;;;;;29.82;44.90;95935.34;5111820;28;20201;-66
2021/08/10 08:02:49;;;;;;;1999.90;999.90;;;;;;;29.90;44.97;95932.16;5111551;28;20195;-66
2021/08/10 08:05:16;;;;;;;1999.90;999.90;;;;;;;29.86;47.10;95928.00;5111595;28;20223;-67
2021/08/10 08:07:43;;;;;;;1999.90;999.90;;;;;;;29.99;46.38;95928.97;5111702;28;20199;-66
2021/08/10 08:10:12;;;;;;;1999.90;999.90;;;;;;;29.65;46.54;95921.06;5111785;28;20199;-66
2021/08/10 08:12:39;;;;;;;1999.90;999.90;;;;;;;29.72;46.95;95917.50;5111318;28;20203;-66
2021/08/10 08:15:08;;;;;;;1999.90;999.90;;;;;;;29.77;47.30;95925.09;5111637;28;20198;-66
2021/08/10 08:17:35;;;;;;;1999.90;999.90;;;;;;;30.34;45.49;95928.34;5111140;28;20233;-66
2021/08/10 08:20:04;;;;;;;1999.90;999.90;;;;;;;30.61;44.72;95914.84;5111502;28;20636;-66
2021/08/10 08:22:31;;;;;;;1999.90;999.90;;;;;;;30.48;46.33;95913.22;5093838;28;20208;-67
2021/08/10 08:24:59;;;;;;;1999.90;999.90;;;;;;;30.73;45.24;95916.94;5090597;28;20259;-67
2021/08/10 08:27:26;;;;;;;1999.90;999.90;;;;;;;30.69;44.94;95918.16;5090603;28;20731;-67
2021/08/10 08:29:53;;;;;;;1999.90;999.90;;;;;;;30.64;43.14;95913.25;5090472;28;20235;-66
2021/08/10 08:32:21;;;;;;;1999.90;999.90;;;;;;;30.88;44.15;95913.94;5090459;28;20257;-66
2021/08/10 08:34:48;;;;;;;1999.90;999.90;;;;;;;31.25;42.84;95907.44;5090919;28;20215;-66
2021/08/10 08:37:17;;;;;;;1999.90;999.90;;;;;;;31.58;43.26;95899.00;5090490;28;20199;-66
2021/08/10 08:39:44;;;;;;;1999.90;999.90;;;;;;;31.83;42.24;95903.78;5090596;28;20238;-66
2021/08/10 08:42:13;;;;;;;1999.90;999.90;;;;;;;31.96;40.99;95903.88;5110762;28;20195;-66
2021/08/10 08:44:40;;;;;;;1999.90;999.90;;;;;;;32.02;40.85;95894.13;5110780;28;20749;-66
2021/08/10 08:47:09;;;;;;;1999.90;999.90;;;;;;;31.86;42.10;95888.75;5110693;28;20210;-66
2021/08/10 08:49:38;;;;;;;1999.90;999.90;;;;;;;32.00;39.16;95891.09;5110535;28;20195;-66
2021/08/10 08:52:10;;;;;;;1999.90;999.90;;;;;;;32.25;37.25;95888.53;5110812;28;20195;-66
2021/08/10 08:54:39;;;;;;;1999.90;999.90;;;;;;;32.08;40.00;95891.69;5109740;28;20187;-66
2021/08/10 08:57:07;;;;;;;1999.90;999.90;;;;;;;32.41;39.90;95883.13;5110745;28;20196;-66
2021/08/10 08:59:34;;;;;;;1999.90;999.90;;;;;;;32.47;37.82;95886.03;5110263;28;20294;-66
2021/08/10 09:02:02;;;;;;;1999.90;999.90;;;;;;;32.58;37.16;95878.41;5110547;28;20202;-66
2021/08/10 09:04:30;;;;;;;1999.90;999.90;;;;;;;32.69;37.64;95870.06;5110289;28;20660;-66
2021/08/10 09:06:57;;;;;;;1999.90;999.90;;;;;;;32.86;38.13;95868.81;5110162;28;20248;-66
2021/08/10 09:09:26;;;;;;;1999.90;999.90;;;;;;;32.77;38.34;95866.00;5110438;28;20290;-66
2021/08/10 09:11:57;;;;;;;1999.90;999.90;;;;;;;32.91;38.95;95862.91;5110105;28;20199;-66
2021/08/10 09:14:25;;;;;;;1999.90;999.90;;;;;;;32.98;39.71;95862.66;5110092;28;20299;-66
2021/08/10 09:17:06;;;;;;;1999.90;999.90;;;;;;;33.25;38.41;95849.56;5110175;28;20200;-67
2021/08/10 09:19:48;;;;;;;1999.90;999.90;;;;;;;33.42;35.03;95857.53;5110099;28;20198;-67
2021/08/10 09:22:22;;;;;;;1999.90;999.90;;;;;;;33.49;32.93;95851.91;5110102;28;20236;-66
2021/08/10 09:24:53;;;;;;;1999.90;999.90;;;;;;;33.72;32.63;95851.59;5109875;28;20304;-66
2021/08/10 09:27:26;;;;;;;1999.90;999.90;;;;;;;33.71;32.32;95845.44;5110242;28;20205;-67
2021/08/10 09:29:54;;;;;;;1999.90;999.90;;;;;;;33.62;32.64;95839.94;5110012;28;20180;-67
2021/08/10 09:32:21;;;;;;;1999.90;999.90;;;;;;;33.85;33.89;95833.41;5109780;28;20723;-67
2021/08/10 09:35:07;;;;;;;1999.90;999.90;;;;;;;33.87;33.34;95836.44;5109780;28;20251;-67
2021/08/10 09:37:34;;;;;;;1999.90;999.90;;;;;;;33.83;33.68;95833.09;5110018;28;20684;-67
2021/08/10 09:40:02;;;;;;;1999.90;999.90;;;;;;;33.87;31.87;95831.03;5107688;28;20230;-67
2021/08/10 09:42:31;;;;;;;1999.90;999.90;;;;;;;33.65;31.17;95827.50;5089743;28;20206;-67
2021/08/10 09:45:04;;;;;;;1999.90;999.90;;;;;;;34.08;30.92;95832.22;5089233;28;20219;-67
2021/08/10 09:47:33;;;;;;;1999.90;999.90;;;;;;;34.24;31.52;95834.03;5089310;28;20192;-67
2021/08/10 09:50:01;;;;;;;1999.90;999.90;;;;;;;34.49;31.65;95831.19;5089193;28;20223;-66
2021/08/10 09:52:30;;;;;;;1999.90;999.90;;;;;;;34.64;30.59;95818.69;5089263;28;20196;-67
2021/08/10 09:55:10;;;;;;;1999.90;999.90;;;;;;;34.82;29.90;95818.06;5089383;28;20224;-67
2021/08/10 09:57:40;;;;;;;1999.90;999.90;;;;;;;35.03;30.67;95813.78;5089252;28;20203;-67
2021/08/10 10:00:09;;;;;;;1999.90;999.90;;;;;;;34.93;30.24;95816.44;5089132;28;20200;-67
2021/08/10 10:02:36;;;;;;;1999.90;999.90;;;;;;;34.93;29.97;95811.03;5089002;28;20199;-67
2021/08/10 10:05:05;;;;;;;1999.90;999.90;;;;;;;35.16;29.03;95811.72;5088702;28;20233;-66
2021/08/10 10:07:32;;;;;;;1999.90;999.90;;;;;;;35.39;30.59;95801.16;5089023;28;20200;-67
2021/08/10 10:10:00;;;;;;;1999.90;999.90;;;;;;;35.40;29.49;95804.59;5088907;28;20227;-67
2021/08/10 10:12:28;;;;;;;1999.90;999.90;;;;;;;35.30;31.33;95808.50;5088981;28;20200;-67
2021/08/10 10:15:00;;;;;;;1999.90;999.90;;;;;;;35.48;30.49;95805.81;5088736;28;20684;-67
2021/08/10 10:17:32;;;;;;;1999.90;999.90;;;;;;;35.61;30.39;95811.84;5088998;28;20192;-67
2021/08/10 10:20:00;;;;;;;1999.90;999.90;;;;;;;35.87;28.16;95798.81;5088798;28;20699;-67
2021/08/10 10:22:32;;;;;;;1999.90;999.90;;;;;;;36.06;27.65;95802.28;5101294;28;20230;-67
2021/08/10 10:25:02;;;;;;;1999.90;999.90;;;;;;;36.08;26.79;95795.19;5088686;28;21010;-67
2021/08/10 10:27:30;;;;;;;1999.90;999.90;;;;;;;36.23;26.89;95787.22;5089124;28;20200;-67
2021/08/10 10:29:59;;;;;;;1999.90;999.90;;;;;;;36.06;27.77;95799.56;5089992;28;20204;-67
2021/08/10 10:32:26;;;;;;;1999.90;999.90;;;;;;;35.97;28.60;95794.13;5088746;28;20200;-67
2021/08/10 10:34:54;;;;;;;1999.90;999.90;;;;;;;36.16;28.20;95792.97;5088774;28;20199;-68
2021/08/10 10:37:23;;;;;;;1999.90;999.90;;;;;;;36.29;30.70;95790.06;5088732;28;20236;-67
2021/08/10 10:39:56;;;;;;;1999.90;999.90;;;;;;;36.02;27.68;95785.41;5088756;28;20235;-67
2021/08/10 10:42:25;;;;;;;1999.90;999.90;;;;;;;36.07;27.67;95788.25;5109024;28;20234;-67
2021/08/10 10:44:52;;;;;;;1999.90;999.90;;;;;;;36.15;26.58;95784.09;5108835;28;20725;-67
2021/08/10 10:47:39;;;;;;;1999.90;999.90;;;;;;;36.02;26.83;95778.03;5108959;28;20210;-67
2021/08/10 10:50:17;;;;;;;1999.90;999.90;;;;;;;36.15;26.99;95770.56;5108849;28;20640;-67
2021/08/10 10:53:01;;;;;;;1999.90;999.90;;;;;;;36.42;28.05;95766.25;5108966;28;20191;-67
2021/08/10 10:55:43;;;;;;;1999.90;999.90;;;;;;;36.48;26.68;95770.63;5109022;28;20216;-67
2021/08/10 10:58:28;;;;;;;1999.90;999.90;;;;;;;36.82;26.74;95771.41;5108784;28;20679;-67
2021/08/10 11:01:18;;;;;;;1999.90;999.90;;;;;;;36.83;27.78;95765.56;5108868;28;20631;-67
2021/08/10 11:04:11;;;;;;;1999.90;999.90;;;;;;;36.79;27.39;95764.22;5103333;28;20694;-67